sensor_id;sensor_type;location;lat;lon;timestamp;temperature;humidity
28460;DHT22;32528;45.712;9.192;2023-05-10T00:01:34;14.90;99.90
28460;DHT22;32528;45.712;9.192;2023-05-10T00:03:35;14.90;99.90
28460;DHT22;32528;45.712;9.192;2023-05-10T00:05:36;14.90;99.90
28460;DHT22;32528;45.712;9.192;2023-05-10T00:07:37;14.90;99.90
28460;DHT22;32528;45.712;9.192;2023-05-10T00:09:37;14.80;99.90
28460;DHT22;32528;45.712;9.192;2023-05-10T00:11:38;14.90;99.90
28460;DHT22;32528;45.712;9.192;2023-05-10T00:13:40;14.80;99.90
28460;DHT22;32528;45.712;9.192;2023-05-10T00:15:40;14.80;99.90
28460;DHT22;32528;45.712;9.192;2023-05-10T00:17:41;14.70;99.90
28460;DHT22;32528;45.712;9.192;2023-05-10T00:19:42;14.80;99.90
28460;DHT22;32528;45.712;9.192;2023-05-10T00:21:43;14.80;99.90
28460;DHT22;32528;45.712;9.192;2023-05-10T00:23:44;14.90;99.90
28460;DHT22;32528;45.712;9.192;2023-05-10T00:25:45;14.90;99.90
28460;DHT22;32528;45.712;9.192;2023-05-10T00:27:45;14.80;99.90
28460;DHT22;32528;45.712;9.192;2023-05-10T00:29:46;14.80;99.90
28460;DHT22;32528;45.712;9.192;2023-05-10T00:31:47;14.90;99.90
28460;DHT22;32528;45.712;9.192;2023-05-10T00:33:48;14.90;99.90
28460;DHT22;32528;45.712;9.192;2023-05-10T00:35:48;14.80;99.90
28460;DHT22;32528;45.712;9.192;2023-05-10T00:37:49;14.80;99.90
28460;DHT22;32528;45.712;9.192;2023-05-10T00:39:50;14.80;99.90
28460;DHT22;32528;45.712;9.192;2023-05-10T00:41:51;14.80;99.90
28460;DHT22;32528;45.712;9.192;2023-05-10T00:43:52;14.70;99.90
28460;DHT22;32528;45.712;9.192;2023-05-10T00:45:53;14.80;99.90
28460;DHT22;32528;45.712;9.192;2023-05-10T00:47:54;14.80;99.90
28460;DHT22;32528;45.712;9.192;2023-05-10T00:49:56;14.90;99.90
28460;DHT22;32528;45.712;9.192;2023-05-10T00:51:57;14.90;99.90
28460;DHT22;32528;45.712;9.192;2023-05-10T00:53:59;14.80;99.90
28460;DHT22;32528;45.712;9.192;2023-05-10T00:56:00;14.80;99.90
28460;DHT22;32528;45.712;9.192;2023-05-10T00:58:01;14.90;99.90
28460;DHT22;32528;45.712;9.192;2023-05-10T01:00:02;14.80;99.90
28460;DHT22;32528;45.712;9.192;2023-05-10T01:02:05;14.80;99.90
28460;DHT22;32528;45.712;9.192;2023-05-10T01:04:06;14.70;99.90
28460;DHT22;32528;45.712;9.192;2023-05-10T01:06:07;14.60;99.90
28460;DHT22;32528;45.712;9.192;2023-05-10T01:08:08;14.70;99.90
28460;DHT22;32528;45.712;9.192;2023-05-10T01:10:10;14.70;99.90
28460;DHT22;32528;45.712;9.192;2023-05-10T01:12:11;14.70;99.90
28460;DHT22;32528;45.712;9.192;2023-05-10T01:14:12;14.70;99.90
28460;DHT22;32528;45.712;9.192;2023-05-10T01:16:15;14.70;99.90
28460;DHT22;32528;45.712;9.192;2023-05-10T01:18:18;14.70;99.90
28460;DHT22;32528;45.712;9.192;2023-05-10T01:20:20;14.80;99.90
28460;DHT22;32528;45.712;9.192;2023-05-10T01:32:14;14.60;99.90
28460;DHT22;32528;45.712;9.192;2023-05-10T01:34:23;14.50;99.90
28460;DHT22;32528;45.712;9.192;2023-05-10T01:36:31;14.40;99.90
28460;DHT22;32528;45.712;9.192;2023-05-10T01:40:46;14.40;99.90
28460;DHT22;32528;45.712;9.192;2023-05-10T01:42:56;14.40;99.90
28460;DHT22;32528;45.712;9.192;2023-05-10T01:45:22;14.30;99.90
28460;DHT22;32528;45.712;9.192;2023-05-10T01:49:45;14.00;99.90
28460;DHT22;32528;45.712;9.192;2023-05-10T01:51:52;13.90;99.90
28460;DHT22;32528;45.712;9.192;2023-05-10T01:54:00;13.90;99.90
28460;DHT22;32528;45.712;9.192;2023-05-10T01:56:02;14.00;99.90
28460;DHT22;32528;45.712;9.192;2023-05-10T01:58:07;14.10;99.90
28460;DHT22;32528;45.712;9.192;2023-05-10T02:00:10;14.10;99.90
28460;DHT22;32528;45.712;9.192;2023-05-10T02:02:19;14.10;99.90
28460;DHT22;32528;45.712;9.192;2023-05-10T02:04:23;14.10;99.90
28460;DHT22;32528;45.712;9.192;2023-05-10T02:06:26;14.20;99.90
28460;DHT22;32528;45.712;9.192;2023-05-10T02:08:28;14.20;99.90
28460;DHT22;32528;45.712;9.192;2023-05-10T02:10:29;14.10;99.90
28460;DHT22;32528;45.712;9.192;2023-05-10T02:12:33;14.10;99.90
28460;DHT22;32528;45.712;9.192;2023-05-10T02:14:36;14.10;99.90
28460;DHT22;32528;45.712;9.192;2023-05-10T02:16:38;14.20;99.90
28460;DHT22;32528;45.712;9.192;2023-05-10T02:18:40;14.30;99.90
28460;DHT22;32528;45.712;9.192;2023-05-10T02:20:43;14.20;99.90
28460;DHT22;32528;45.712;9.192;2023-05-10T02:22:45;14.20;99.90
28460;DHT22;32528;45.712;9.192;2023-05-10T02:24:50;14.30;99.90
28460;DHT22;32528;45.712;9.192;2023-05-10T02:26:53;14.30;99.90
28460;DHT22;32528;45.712;9.192;2023-05-10T02:28:56;14.30;99.90
28460;DHT22;32528;45.712;9.192;2023-05-10T02:30:57;14.20;99.90
28460;DHT22;32528;45.712;9.192;2023-05-10T02:32:58;14.20;99.90
28460;DHT22;32528;45.712;9.192;2023-05-10T02:35:01;14.20;99.90
28460;DHT22;32528;45.712;9.192;2023-05-10T02:37:03;14.30;99.90
28460;DHT22;32528;45.712;9.192;2023-05-10T02:39:06;14.30;99.90
28460;DHT22;32528;45.712;9.192;2023-05-10T02:41:10;14.30;99.90
28460;DHT22;32528;45.712;9.192;2023-05-10T02:43:13;14.30;99.90
28460;DHT22;32528;45.712;9.192;2023-05-10T02:45:18;14.30;99.90
28460;DHT22;32528;45.712;9.192;2023-05-10T02:47:19;14.40;99.90
28460;DHT22;32528;45.712;9.192;2023-05-10T02:49:20;14.40;99.90
28460;DHT22;32528;45.712;9.192;2023-05-10T02:51:25;14.40;99.90
28460;DHT22;32528;45.712;9.192;2023-05-10T02:53:31;14.40;99.90
28460;DHT22;32528;45.712;9.192;2023-05-10T02:55:36;14.40;99.90
28460;DHT22;32528;45.712;9.192;2023-05-10T02:57:39;14.30;99.90
28460;DHT22;32528;45.712;9.192;2023-05-10T02:59:41;14.30;99.90
28460;DHT22;32528;45.712;9.192;2023-05-10T03:01:43;14.40;99.90
28460;DHT22;32528;45.712;9.192;2023-05-10T03:03:44;14.30;99.90
28460;DHT22;32528;45.712;9.192;2023-05-10T03:05:44;14.30;99.90
28460;DHT22;32528;45.712;9.192;2023-05-10T03:07:46;14.30;99.90
28460;DHT22;32528;45.712;9.192;2023-05-10T03:09:49;14.30;99.90
28460;DHT22;32528;45.712;9.192;2023-05-10T03:11:55;14.40;99.90
28460;DHT22;32528;45.712;9.192;2023-05-10T03:16:16;14.40;99.90
28460;DHT22;32528;45.712;9.192;2023-05-10T03:18:32;14.40;99.90
28460;DHT22;32528;45.712;9.192;2023-05-10T03:20:43;14.40;99.90
28460;DHT22;32528;45.712;9.192;2023-05-10T03:22:51;14.40;99.90
28460;DHT22;32528;45.712;9.192;2023-05-10T03:24:55;14.50;99.90
28460;DHT22;32528;45.712;9.192;2023-05-10T03:27:02;14.70;99.90
28460;DHT22;32528;45.712;9.192;2023-05-10T03:29:06;14.70;99.90
28460;DHT22;32528;45.712;9.192;2023-05-10T03:31:08;14.70;99.90
28460;DHT22;32528;45.712;9.192;2023-05-10T03:33:09;14.60;99.90
28460;DHT22;32528;45.712;9.192;2023-05-10T03:35:15;14.50;99.90
28460;DHT22;32528;45.712;9.192;2023-05-10T03:37:16;14.50;99.90
28460;DHT22;32528;45.712;9.192;2023-05-10T03:39:17;14.50;99.90
28460;DHT22;32528;45.712;9.192;2023-05-10T03:41:23;14.40;99.90
28460;DHT22;32528;45.712;9.192;2023-05-10T03:43:25;14.40;99.90
28460;DHT22;32528;45.712;9.192;2023-05-10T03:45:26;14.30;99.90
28460;DHT22;32528;45.712;9.192;2023-05-10T03:47:27;14.30;99.90
28460;DHT22;32528;45.712;9.192;2023-05-10T03:49:28;14.40;99.90
28460;DHT22;32528;45.712;9.192;2023-05-10T03:51:29;14.50;99.90
28460;DHT22;32528;45.712;9.192;2023-05-10T03:53:31;14.50;99.90
28460;DHT22;32528;45.712;9.192;2023-05-10T03:55:32;14.50;99.90
28460;DHT22;32528;45.712;9.192;2023-05-10T03:57:35;14.50;99.90
28460;DHT22;32528;45.712;9.192;2023-05-10T03:59:37;14.40;99.90
28460;DHT22;32528;45.712;9.192;2023-05-10T04:01:37;14.40;99.90
28460;DHT22;32528;45.712;9.192;2023-05-10T04:03:38;14.40;99.90
28460;DHT22;32528;45.712;9.192;2023-05-10T04:05:40;14.40;99.90
28460;DHT22;32528;45.712;9.192;2023-05-10T04:07:41;14.40;99.90
28460;DHT22;32528;45.712;9.192;2023-05-10T04:09:41;14.30;99.90
28460;DHT22;32528;45.712;9.192;2023-05-10T04:11:43;14.30;99.90
28460;DHT22;32528;45.712;9.192;2023-05-10T04:13:43;14.30;99.90
28460;DHT22;32528;45.712;9.192;2023-05-10T04:15:44;14.40;99.90
28460;DHT22;32528;45.712;9.192;2023-05-10T04:17:45;14.50;99.90
28460;DHT22;32528;45.712;9.192;2023-05-10T04:19:46;14.50;99.90
28460;DHT22;32528;45.712;9.192;2023-05-10T04:21:47;14.50;99.90
28460;DHT22;32528;45.712;9.192;2023-05-10T04:23:47;14.50;99.90
28460;DHT22;32528;45.712;9.192;2023-05-10T04:25:48;14.60;99.90
28460;DHT22;32528;45.712;9.192;2023-05-10T04:27:50;14.50;99.90
28460;DHT22;32528;45.712;9.192;2023-05-10T04:29:50;14.50;99.90
28460;DHT22;32528;45.712;9.192;2023-05-10T04:31:52;14.50;99.90
28460;DHT22;32528;45.712;9.192;2023-05-10T04:33:53;14.50;99.90
28460;DHT22;32528;45.712;9.192;2023-05-10T04:35:56;14.50;99.90
28460;DHT22;32528;45.712;9.192;2023-05-10T04:37:56;14.50;99.90
28460;DHT22;32528;45.712;9.192;2023-05-10T04:39:57;14.40;99.90
28460;DHT22;32528;45.712;9.192;2023-05-10T04:42:00;14.40;99.90
28460;DHT22;32528;45.712;9.192;2023-05-10T04:44:03;14.40;99.90
28460;DHT22;32528;45.712;9.192;2023-05-10T04:46:04;14.50;99.90
28460;DHT22;32528;45.712;9.192;2023-05-10T04:48:05;14.40;99.90
28460;DHT22;32528;45.712;9.192;2023-05-10T04:50:06;14.40;99.90
28460;DHT22;32528;45.712;9.192;2023-05-10T04:52:07;14.40;99.90
28460;DHT22;32528;45.712;9.192;2023-05-10T04:54:08;14.40;99.90
28460;DHT22;32528;45.712;9.192;2023-05-10T04:56:09;14.40;99.90
28460;DHT22;32528;45.712;9.192;2023-05-10T04:58:10;14.40;99.90
28460;DHT22;32528;45.712;9.192;2023-05-10T05:00:11;14.40;99.90
28460;DHT22;32528;45.712;9.192;2023-05-10T05:02:11;14.40;99.90
28460;DHT22;32528;45.712;9.192;2023-05-10T05:04:12;14.40;99.90
28460;DHT22;32528;45.712;9.192;2023-05-10T05:06:13;14.30;99.90
28460;DHT22;32528;45.712;9.192;2023-05-10T05:08:14;14.40;99.90
28460;DHT22;32528;45.712;9.192;2023-05-10T05:10:14;14.40;99.90
28460;DHT22;32528;45.712;9.192;2023-05-10T05:12:17;14.40;99.90
28460;DHT22;32528;45.712;9.192;2023-05-10T05:14:17;14.50;99.90
28460;DHT22;32528;45.712;9.192;2023-05-10T05:16:18;14.50;99.90
28460;DHT22;32528;45.712;9.192;2023-05-10T05:18:19;14.50;99.90
28460;DHT22;32528;45.712;9.192;2023-05-10T05:20:20;14.60;99.90
28460;DHT22;32528;45.712;9.192;2023-05-10T05:22:21;14.70;99.90
28460;DHT22;32528;45.712;9.192;2023-05-10T05:24:28;14.80;99.90
28460;DHT22;32528;45.712;9.192;2023-05-10T05:26:29;14.70;99.90
28460;DHT22;32528;45.712;9.192;2023-05-10T05:28:30;14.80;99.90
28460;DHT22;32528;45.712;9.192;2023-05-10T05:30:33;14.70;99.90
28460;DHT22;32528;45.712;9.192;2023-05-10T05:32:33;14.60;99.90
28460;DHT22;32528;45.712;9.192;2023-05-10T05:34:34;14.60;99.90
28460;DHT22;32528;45.712;9.192;2023-05-10T05:36:38;14.50;99.90
28460;DHT22;32528;45.712;9.192;2023-05-10T05:38:39;14.50;99.90
28460;DHT22;32528;45.712;9.192;2023-05-10T05:40:40;14.50;99.90
28460;DHT22;32528;45.712;9.192;2023-05-10T05:42:41;14.50;99.90
28460;DHT22;32528;45.712;9.192;2023-05-10T05:44:41;14.50;99.90
28460;DHT22;32528;45.712;9.192;2023-05-10T05:46:42;14.60;99.90
28460;DHT22;32528;45.712;9.192;2023-05-10T05:48:43;14.60;99.90
28460;DHT22;32528;45.712;9.192;2023-05-10T05:50:43;14.60;99.90
28460;DHT22;32528;45.712;9.192;2023-05-10T05:52:45;14.60;99.90
28460;DHT22;32528;45.712;9.192;2023-05-10T05:54:46;14.50;99.90
28460;DHT22;32528;45.712;9.192;2023-05-10T05:56:47;14.50;99.90
28460;DHT22;32528;45.712;9.192;2023-05-10T05:58:48;14.60;99.90
28460;DHT22;32528;45.712;9.192;2023-05-10T06:00:50;14.60;99.90
28460;DHT22;32528;45.712;9.192;2023-05-10T06:02:52;14.60;99.90
28460;DHT22;32528;45.712;9.192;2023-05-10T06:04:53;14.60;99.90
28460;DHT22;32528;45.712;9.192;2023-05-10T06:06:54;14.60;99.90
28460;DHT22;32528;45.712;9.192;2023-05-10T06:08:55;14.70;99.90
28460;DHT22;32528;45.712;9.192;2023-05-10T06:10:55;14.70;99.90
28460;DHT22;32528;45.712;9.192;2023-05-10T06:12:56;14.60;99.90
28460;DHT22;32528;45.712;9.192;2023-05-10T06:14:57;14.60;99.90
28460;DHT22;32528;45.712;9.192;2023-05-10T06:16:57;14.60;99.90
28460;DHT22;32528;45.712;9.192;2023-05-10T06:19:00;14.60;99.90
28460;DHT22;32528;45.712;9.192;2023-05-10T06:21:00;14.80;99.90
28460;DHT22;32528;45.712;9.192;2023-05-10T06:23:01;14.90;99.90
28460;DHT22;32528;45.712;9.192;2023-05-10T06:25:02;14.90;99.90
28460;DHT22;32528;45.712;9.192;2023-05-10T06:27:03;14.90;99.90
28460;DHT22;32528;45.712;9.192;2023-05-10T06:29:04;15.00;99.90
28460;DHT22;32528;45.712;9.192;2023-05-10T06:31:05;15.00;99.90
28460;DHT22;32528;45.712;9.192;2023-05-10T06:33:06;15.00;99.90
28460;DHT22;32528;45.712;9.192;2023-05-10T06:35:08;15.10;99.90
28460;DHT22;32528;45.712;9.192;2023-05-10T06:37:08;15.10;99.90
28460;DHT22;32528;45.712;9.192;2023-05-10T06:39:09;15.20;99.90
28460;DHT22;32528;45.712;9.192;2023-05-10T06:41:12;15.10;99.90
28460;DHT22;32528;45.712;9.192;2023-05-10T06:43:12;15.10;99.90
28460;DHT22;32528;45.712;9.192;2023-05-10T06:45:14;15.20;99.90
28460;DHT22;32528;45.712;9.192;2023-05-10T06:47:15;15.30;99.90
28460;DHT22;32528;45.712;9.192;2023-05-10T06:49:16;15.30;99.90
28460;DHT22;32528;45.712;9.192;2023-05-10T06:51:16;15.40;99.90
28460;DHT22;32528;45.712;9.192;2023-05-10T06:53:18;15.40;99.90
28460;DHT22;32528;45.712;9.192;2023-05-10T06:55:19;15.40;99.90
28460;DHT22;32528;45.712;9.192;2023-05-10T06:57:20;15.30;99.90
28460;DHT22;32528;45.712;9.192;2023-05-10T06:59:22;15.30;99.90
28460;DHT22;32528;45.712;9.192;2023-05-10T07:01:23;15.20;99.90
28460;DHT22;32528;45.712;9.192;2023-05-10T07:03:23;15.20;99.90
28460;DHT22;32528;45.712;9.192;2023-05-10T07:05:24;15.30;99.90
28460;DHT22;32528;45.712;9.192;2023-05-10T07:07:25;15.30;99.90
28460;DHT22;32528;45.712;9.192;2023-05-10T07:09:25;15.20;99.90
28460;DHT22;32528;45.712;9.192;2023-05-10T07:11:27;15.30;99.90
28460;DHT22;32528;45.712;9.192;2023-05-10T07:13:27;15.40;99.90
28460;DHT22;32528;45.712;9.192;2023-05-10T07:15:28;15.50;99.90
28460;DHT22;32528;45.712;9.192;2023-05-10T07:17:29;15.50;99.90
28460;DHT22;32528;45.712;9.192;2023-05-10T07:19:29;15.50;99.90
28460;DHT22;32528;45.712;9.192;2023-05-10T07:21:31;15.50;99.90
28460;DHT22;32528;45.712;9.192;2023-05-10T07:23:32;15.60;99.90
28460;DHT22;32528;45.712;9.192;2023-05-10T07:25:34;15.60;99.90
28460;DHT22;32528;45.712;9.192;2023-05-10T07:27:35;15.70;99.90
28460;DHT22;32528;45.712;9.192;2023-05-10T07:29:37;15.70;99.90
28460;DHT22;32528;45.712;9.192;2023-05-10T07:31:37;15.90;99.90
28460;DHT22;32528;45.712;9.192;2023-05-10T07:33:38;15.90;99.90
28460;DHT22;32528;45.712;9.192;2023-05-10T07:35:39;16.10;99.90
28460;DHT22;32528;45.712;9.192;2023-05-10T07:37:40;16.20;99.90
28460;DHT22;32528;45.712;9.192;2023-05-10T07:39:40;16.40;99.90
28460;DHT22;32528;45.712;9.192;2023-05-10T07:41:41;16.30;99.90
28460;DHT22;32528;45.712;9.192;2023-05-10T07:43:41;16.30;99.90
28460;DHT22;32528;45.712;9.192;2023-05-10T07:45:42;16.20;99.90
28460;DHT22;32528;45.712;9.192;2023-05-10T07:47:43;16.10;99.90
28460;DHT22;32528;45.712;9.192;2023-05-10T07:49:45;16.10;99.90
28460;DHT22;32528;45.712;9.192;2023-05-10T07:51:46;16.10;99.90
28460;DHT22;32528;45.712;9.192;2023-05-10T07:53:46;16.10;99.90
28460;DHT22;32528;45.712;9.192;2023-05-10T07:55:51;16.10;99.90
28460;DHT22;32528;45.712;9.192;2023-05-10T07:57:52;16.20;99.90
28460;DHT22;32528;45.712;9.192;2023-05-10T07:59:53;16.10;99.90
28460;DHT22;32528;45.712;9.192;2023-05-10T08:01:54;16.20;99.90
28460;DHT22;32528;45.712;9.192;2023-05-10T08:03:54;16.20;99.90
28460;DHT22;32528;45.712;9.192;2023-05-10T08:05:55;16.20;99.90
28460;DHT22;32528;45.712;9.192;2023-05-10T08:07:56;16.20;99.90
28460;DHT22;32528;45.712;9.192;2023-05-10T08:09:57;16.10;99.90
28460;DHT22;32528;45.712;9.192;2023-05-10T08:11:57;16.20;99.90
28460;DHT22;32528;45.712;9.192;2023-05-10T08:13:59;16.40;99.90
28460;DHT22;32528;45.712;9.192;2023-05-10T08:16:00;16.60;99.90
28460;DHT22;32528;45.712;9.192;2023-05-10T08:18:02;16.80;99.90
28460;DHT22;32528;45.712;9.192;2023-05-10T08:20:02;16.80;99.90
28460;DHT22;32528;45.712;9.192;2023-05-10T08:22:04;17.00;99.90
28460;DHT22;32528;45.712;9.192;2023-05-10T08:24:05;17.20;99.90
28460;DHT22;32528;45.712;9.192;2023-05-10T08:26:06;17.00;99.90
28460;DHT22;32528;45.712;9.192;2023-05-10T08:28:07;17.00;99.90
28460;DHT22;32528;45.712;9.192;2023-05-10T08:30:08;17.10;99.90
28460;DHT22;32528;45.712;9.192;2023-05-10T08:32:09;17.30;99.90
28460;DHT22;32528;45.712;9.192;2023-05-10T08:34:10;17.30;99.90
28460;DHT22;32528;45.712;9.192;2023-05-10T08:36:11;17.30;99.90
28460;DHT22;32528;45.712;9.192;2023-05-10T08:38:14;17.30;99.90
28460;DHT22;32528;45.712;9.192;2023-05-10T08:40:15;17.30;99.90
28460;DHT22;32528;45.712;9.192;2023-05-10T08:42:19;17.20;99.90
28460;DHT22;32528;45.712;9.192;2023-05-10T08:44:22;17.10;99.90
28460;DHT22;32528;45.712;9.192;2023-05-10T08:46:23;17.00;99.90
28460;DHT22;32528;45.712;9.192;2023-05-10T08:48:24;17.00;99.90
28460;DHT22;32528;45.712;9.192;2023-05-10T08:50:26;17.00;99.90
28460;DHT22;32528;45.712;9.192;2023-05-10T08:52:28;17.10;99.90
28460;DHT22;32528;45.712;9.192;2023-05-10T08:54:32;17.20;99.90
28460;DHT22;32528;45.712;9.192;2023-05-10T08:56:33;17.20;99.90
28460;DHT22;32528;45.712;9.192;2023-05-10T08:58:34;17.10;99.90
28460;DHT22;32528;45.712;9.192;2023-05-10T09:00:35;17.10;99.90
28460;DHT22;32528;45.712;9.192;2023-05-10T09:02:37;17.20;99.90
28460;DHT22;32528;45.712;9.192;2023-05-10T09:04:38;17.20;99.90
28460;DHT22;32528;45.712;9.192;2023-05-10T09:06:39;17.20;99.90
28460;DHT22;32528;45.712;9.192;2023-05-10T09:08:39;17.10;99.90
28460;DHT22;32528;45.712;9.192;2023-05-10T09:10:42;17.00;99.90
28460;DHT22;32528;45.712;9.192;2023-05-10T09:12:43;16.90;99.90
28460;DHT22;32528;45.712;9.192;2023-05-10T09:14:46;16.90;99.90
28460;DHT22;32528;45.712;9.192;2023-05-10T09:16:46;16.80;99.90
28460;DHT22;32528;45.712;9.192;2023-05-10T09:18:48;16.80;99.90
28460;DHT22;32528;45.712;9.192;2023-05-10T09:20:49;16.80;99.90
28460;DHT22;32528;45.712;9.192;2023-05-10T09:22:50;16.90;99.90
28460;DHT22;32528;45.712;9.192;2023-05-10T09:27:09;17.00;99.90
28460;DHT22;32528;45.712;9.192;2023-05-10T09:29:10;17.10;99.90
28460;DHT22;32528;45.712;9.192;2023-05-10T09:31:13;17.20;99.90
28460;DHT22;32528;45.712;9.192;2023-05-10T09:33:13;17.20;99.90
28460;DHT22;32528;45.712;9.192;2023-05-10T09:35:18;17.20;99.90
28460;DHT22;32528;45.712;9.192;2023-05-10T09:37:29;17.10;99.90
28460;DHT22;32528;45.712;9.192;2023-05-10T09:39:35;17.10;99.90
28460;DHT22;32528;45.712;9.192;2023-05-10T09:41:36;17.10;99.90
28460;DHT22;32528;45.712;9.192;2023-05-10T09:43:40;17.00;99.90
28460;DHT22;32528;45.712;9.192;2023-05-10T09:45:41;17.10;99.90
28460;DHT22;32528;45.712;9.192;2023-05-10T09:47:42;17.20;99.90
28460;DHT22;32528;45.712;9.192;2023-05-10T09:49:42;17.30;99.90
28460;DHT22;32528;45.712;9.192;2023-05-10T09:51:43;17.50;99.90
28460;DHT22;32528;45.712;9.192;2023-05-10T09:53:44;17.60;99.90
28460;DHT22;32528;45.712;9.192;2023-05-10T09:55:46;17.70;99.90
28460;DHT22;32528;45.712;9.192;2023-05-10T09:57:47;17.80;99.90
28460;DHT22;32528;45.712;9.192;2023-05-10T09:59:49;17.90;99.90
28460;DHT22;32528;45.712;9.192;2023-05-10T10:01:51;17.90;99.90
28460;DHT22;32528;45.712;9.192;2023-05-10T10:03:53;18.00;99.90
28460;DHT22;32528;45.712;9.192;2023-05-10T10:05:53;17.80;99.90
28460;DHT22;32528;45.712;9.192;2023-05-10T10:08:02;17.70;99.90
28460;DHT22;32528;45.712;9.192;2023-05-10T10:10:04;17.60;99.90
28460;DHT22;32528;45.712;9.192;2023-05-10T10:12:05;17.50;99.90
28460;DHT22;32528;45.712;9.192;2023-05-10T10:14:06;17.60;99.90
28460;DHT22;32528;45.712;9.192;2023-05-10T10:16:08;17.70;99.90
28460;DHT22;32528;45.712;9.192;2023-05-10T10:18:13;17.70;99.90
28460;DHT22;32528;45.712;9.192;2023-05-10T10:20:15;17.60;99.90
28460;DHT22;32528;45.712;9.192;2023-05-10T10:22:17;17.70;99.90
28460;DHT22;32528;45.712;9.192;2023-05-10T10:24:17;17.90;99.90
28460;DHT22;32528;45.712;9.192;2023-05-10T10:26:19;18.20;99.90
28460;DHT22;32528;45.712;9.192;2023-05-10T10:28:26;18.30;99.90
28460;DHT22;32528;45.712;9.192;2023-05-10T10:30:38;18.50;99.90
28460;DHT22;32528;45.712;9.192;2023-05-10T10:34:59;18.20;99.90
28460;DHT22;32528;45.712;9.192;2023-05-10T10:37:05;17.90;99.90
28460;DHT22;32528;45.712;9.192;2023-05-10T10:39:10;17.70;99.90
28460;DHT22;32528;45.712;9.192;2023-05-10T10:41:36;17.50;99.90
28460;DHT22;32528;45.712;9.192;2023-05-10T10:43:37;17.40;99.90
28460;DHT22;32528;45.712;9.192;2023-05-10T10:45:39;17.30;99.90
28460;DHT22;32528;45.712;9.192;2023-05-10T10:47:40;17.30;99.90
28460;DHT22;32528;45.712;9.192;2023-05-10T10:49:49;17.30;99.90
28460;DHT22;32528;45.712;9.192;2023-05-10T10:54:32;17.10;99.90
28460;DHT22;32528;45.712;9.192;2023-05-10T10:56:33;16.90;99.90
28460;DHT22;32528;45.712;9.192;2023-05-10T10:58:34;16.90;99.90
28460;DHT22;32528;45.712;9.192;2023-05-10T11:00:36;16.80;99.90
28460;DHT22;32528;45.712;9.192;2023-05-10T11:04:43;17.00;99.90
28460;DHT22;32528;45.712;9.192;2023-05-10T11:06:46;17.20;99.90
28460;DHT22;32528;45.712;9.192;2023-05-10T11:08:47;17.40;99.90
28460;DHT22;32528;45.712;9.192;2023-05-10T11:13:03;17.50;99.90
28460;DHT22;32528;45.712;9.192;2023-05-10T11:15:09;17.60;99.90
28460;DHT22;32528;45.712;9.192;2023-05-10T11:17:29;17.70;99.90
28460;DHT22;32528;45.712;9.192;2023-05-10T11:19:30;17.60;99.90
28460;DHT22;32528;45.712;9.192;2023-05-10T11:21:32;17.70;99.90
28460;DHT22;32528;45.712;9.192;2023-05-10T11:25:44;18.00;99.90
28460;DHT22;32528;45.712;9.192;2023-05-10T11:27:47;18.10;99.90
28460;DHT22;32528;45.712;9.192;2023-05-10T11:29:51;18.20;99.90
28460;DHT22;32528;45.712;9.192;2023-05-10T11:31:52;18.10;99.90
28460;DHT22;32528;45.712;9.192;2023-05-10T11:33:55;18.00;99.90
28460;DHT22;32528;45.712;9.192;2023-05-10T11:35:57;18.10;99.90
28460;DHT22;32528;45.712;9.192;2023-05-10T11:37:58;18.10;99.90
28460;DHT22;32528;45.712;9.192;2023-05-10T11:39:59;18.30;99.90
28460;DHT22;32528;45.712;9.192;2023-05-10T11:42:00;18.30;99.90
28460;DHT22;32528;45.712;9.192;2023-05-10T11:44:01;18.40;99.90
28460;DHT22;32528;45.712;9.192;2023-05-10T11:46:02;18.60;99.90
28460;DHT22;32528;45.712;9.192;2023-05-10T11:48:04;18.70;99.90
28460;DHT22;32528;45.712;9.192;2023-05-10T11:50:05;18.70;99.90
28460;DHT22;32528;45.712;9.192;2023-05-10T11:52:08;19.00;99.90
28460;DHT22;32528;45.712;9.192;2023-05-10T11:54:10;19.10;99.90
28460;DHT22;32528;45.712;9.192;2023-05-10T11:56:11;19.00;99.90
28460;DHT22;32528;45.712;9.192;2023-05-10T11:58:12;18.90;99.90
28460;DHT22;32528;45.712;9.192;2023-05-10T12:00:13;18.90;99.90
28460;DHT22;32528;45.712;9.192;2023-05-10T12:02:16;19.20;99.90
28460;DHT22;32528;45.712;9.192;2023-05-10T12:04:17;19.20;99.90
28460;DHT22;32528;45.712;9.192;2023-05-10T12:06:19;19.20;99.90
28460;DHT22;32528;45.712;9.192;2023-05-10T12:08:25;18.90;99.90
28460;DHT22;32528;45.712;9.192;2023-05-10T12:10:26;18.40;99.90
28460;DHT22;32528;45.712;9.192;2023-05-10T12:12:45;18.10;99.90
28460;DHT22;32528;45.712;9.192;2023-05-10T12:14:50;17.80;99.90
28460;DHT22;32528;45.712;9.192;2023-05-10T12:16:53;17.50;99.90
28460;DHT22;32528;45.712;9.192;2023-05-10T12:18:56;17.50;99.90
28460;DHT22;32528;45.712;9.192;2023-05-10T12:21:03;17.30;99.90
28460;DHT22;32528;45.712;9.192;2023-05-10T12:23:04;17.10;99.90
28460;DHT22;32528;45.712;9.192;2023-05-10T12:25:07;16.90;99.90
28460;DHT22;32528;45.712;9.192;2023-05-10T12:27:08;17.00;99.90
28460;DHT22;32528;45.712;9.192;2023-05-10T12:29:14;17.10;99.90
28460;DHT22;32528;45.712;9.192;2023-05-10T12:31:16;17.20;99.90
28460;DHT22;32528;45.712;9.192;2023-05-10T12:33:17;17.20;99.90
28460;DHT22;32528;45.712;9.192;2023-05-10T12:35:18;17.10;99.90
28460;DHT22;32528;45.712;9.192;2023-05-10T12:37:27;17.00;99.90
28460;DHT22;32528;45.712;9.192;2023-05-10T12:39:42;16.90;99.90
28460;DHT22;32528;45.712;9.192;2023-05-10T12:41:43;16.80;99.90
28460;DHT22;32528;45.712;9.192;2023-05-10T12:43:44;16.80;99.90
28460;DHT22;32528;45.712;9.192;2023-05-10T12:45:47;17.00;99.90
28460;DHT22;32528;45.712;9.192;2023-05-10T12:47:49;17.00;99.90
28460;DHT22;32528;45.712;9.192;2023-05-10T12:49:51;17.00;99.90
28460;DHT22;32528;45.712;9.192;2023-05-10T12:51:52;17.10;99.90
28460;DHT22;32528;45.712;9.192;2023-05-10T12:53:52;17.30;99.90
28460;DHT22;32528;45.712;9.192;2023-05-10T12:55:53;17.30;99.90
28460;DHT22;32528;45.712;9.192;2023-05-10T12:57:54;17.10;99.90
28460;DHT22;32528;45.712;9.192;2023-05-10T12:59:55;16.80;99.90
28460;DHT22;32528;45.712;9.192;2023-05-10T13:01:57;16.60;99.90
28460;DHT22;32528;45.712;9.192;2023-05-10T13:03:58;16.50;99.90
28460;DHT22;32528;45.712;9.192;2023-05-10T13:06:00;16.30;99.90
28460;DHT22;32528;45.712;9.192;2023-05-10T13:08:01;16.40;99.90
28460;DHT22;32528;45.712;9.192;2023-05-10T13:10:01;16.30;99.90
28460;DHT22;32528;45.712;9.192;2023-05-10T13:12:02;16.30;99.90
28460;DHT22;32528;45.712;9.192;2023-05-10T13:14:04;16.10;99.90
28460;DHT22;32528;45.712;9.192;2023-05-10T13:16:05;16.30;99.90
28460;DHT22;32528;45.712;9.192;2023-05-10T13:18:06;16.20;99.90
28460;DHT22;32528;45.712;9.192;2023-05-10T13:20:07;16.20;99.90
28460;DHT22;32528;45.712;9.192;2023-05-10T13:22:08;16.30;99.90